createdAt,value
2023-12-29T00:03:47.545Z,101721.94
2023-12-29T00:08:51.839Z,101729.72
2023-12-29T00:13:55.441Z,101730.03
2023-12-29T00:18:58.302Z,101711.41
2023-12-29T00:24:01.878Z,101732.63
2023-12-29T00:29:07.410Z,101724.22
2023-12-29T00:34:11.022Z,101731.94
2023-12-29T00:39:14.310Z,101727.81
2023-12-29T00:44:17.092Z,101734.50
2023-12-29T00:49:20.560Z,101734.09
2023-12-29T00:54:24.493Z,101722.56
2023-12-29T00:59:28.513Z,101716.25
2023-12-29T01:04:31.386Z,101708.66
2023-12-29T01:09:39.851Z,101700.31
2023-12-29T01:14:42.703Z,101701.25
2023-12-29T01:19:46.463Z,101696.03
2023-12-29T01:24:49.691Z,101689.34
2023-12-29T01:29:54.082Z,101686.34
2023-12-29T01:34:56.980Z,101689.47
2023-12-29T01:40:01.542Z,101684.41
2023-12-29T01:45:05.041Z,101671.34
2023-12-29T01:50:08.592Z,101658.34
2023-12-29T01:55:14.391Z,101660.28
2023-12-29T02:00:18.781Z,101666.06
2023-12-29T02:05:26.319Z,101662.75
2023-12-29T02:10:29.968Z,101660.28
2023-12-29T02:15:32.911Z,101668.53
2023-12-29T02:20:36.185Z,101671.13
2023-12-29T02:25:39.821Z,101667.06
2023-12-29T02:31:08.002Z,101662.63
2023-12-29T02:36:13.984Z,101663.72
2023-12-29T02:41:17.178Z,101663.13
2023-12-29T02:46:20.346Z,101644.59
2023-12-29T02:51:23.286Z,101650.56
2023-12-29T02:56:25.984Z,101657.75
2023-12-29T03:01:30.510Z,101649.06
2023-12-29T03:06:33.514Z,101644.78
2023-12-29T03:11:37.294Z,101652.50
2023-12-29T03:16:40.113Z,101647.22
2023-12-29T03:21:43.340Z,101633.97
2023-12-29T03:26:46.509Z,101639.09
2023-12-29T03:31:50.292Z,101625.94
2023-12-29T03:36:53.321Z,101631.25
2023-12-29T03:41:56.562Z,101635.88
2023-12-29T03:47:00.558Z,101638.97
2023-12-29T03:52:03.905Z,101644.84
2023-12-29T03:57:06.795Z,101654.56
2023-12-29T04:02:11.137Z,101648.47
2023-12-29T04:07:14.523Z,101633.31
2023-12-29T04:12:18.773Z,101643.03
2023-12-29T04:17:21.578Z,101623.34
2023-12-29T04:22:24.833Z,101631.00
2023-12-29T04:27:27.734Z,101632.72
2023-12-29T04:32:31.676Z,101628.75
2023-12-29T04:37:34.499Z,101624.63
2023-12-29T04:42:38.148Z,101615.03
2023-12-29T04:47:40.944Z,101623.06
2023-12-29T04:52:44.051Z,101612.53
2023-12-29T04:57:46.946Z,101604.63
2023-12-29T05:02:50.268Z,101605.75
2023-12-29T05:07:53.011Z,101593.38
2023-12-29T05:12:56.071Z,101592.06
2023-12-29T05:17:59.278Z,101587.66
2023-12-29T05:23:02.590Z,101610.34
2023-12-29T05:28:05.752Z,101601.25
2023-12-29T05:33:10.358Z,101604.00
2023-12-29T05:38:13.171Z,101593.13
2023-12-29T05:43:20.413Z,101599.47
2023-12-29T05:48:23.323Z,101615.03
2023-12-29T05:53:26.618Z,101613.56
2023-12-29T05:58:29.545Z,101606.34
2023-12-29T06:03:32.802Z,101601.00
2023-12-29T06:08:35.757Z,101597.81
2023-12-29T06:13:39.811Z,101589.81
2023-12-29T06:18:43.077Z,101583.94
2023-12-29T06:23:47.949Z,101577.78
2023-12-29T06:28:50.831Z,101578.56
2023-12-29T06:33:55.481Z,101578.59
2023-12-29T06:39:01.984Z,101576.59
2023-12-29T06:44:05.397Z,101557.09
2023-12-29T06:49:10.615Z,101553.97
2023-12-29T06:54:14.493Z,101556.47
2023-12-29T06:59:17.866Z,101556.88
2023-12-29T07:04:22.086Z,101568.19
2023-12-29T07:09:25.049Z,101578.19
2023-12-29T07:14:28.509Z,101580.41
2023-12-29T07:19:39.173Z,101577.97
2023-12-29T07:24:42.408Z,101579.84
2023-12-29T07:29:45.387Z,101577.47
2023-12-29T07:34:51.008Z,101577.03
2023-12-29T07:39:54.203Z,101545.28
2023-12-29T07:44:58.007Z,101538.81
2023-12-29T07:50:00.944Z,101517.28
2023-12-29T07:55:04.463Z,101507.06
2023-12-29T08:00:08.146Z,101502.72
2023-12-29T08:05:20.628Z,101485.91
2023-12-29T08:10:23.601Z,101477.53
2023-12-29T08:15:26.894Z,101453.47
2023-12-29T08:20:30.208Z,101447.91
2023-12-29T08:26:38.233Z,101445.38
2023-12-29T08:31:41.115Z,101441.28
2023-12-29T08:36:44.427Z,101421.63
2023-12-29T08:41:48.873Z,101396.03
2023-12-29T08:46:52.394Z,101388.34
2023-12-29T08:51:55.227Z,101369.63
2023-12-29T08:56:58.259Z,101358.13
2023-12-29T09:02:01.866Z,101358.22
2023-12-29T09:07:07.575Z,101355.50
2023-12-29T09:12:10.682Z,101349.78
2023-12-29T09:17:13.979Z,101338.34
2023-12-29T09:22:16.961Z,101333.63
2023-12-29T09:27:20.405Z,101324.56
2023-12-29T09:32:23.291Z,101318.69
2023-12-29T09:37:26.553Z,101295.31
2023-12-29T09:42:30.899Z,101292.84
2023-12-29T09:47:37.450Z,101273.56
2023-12-29T09:52:44.583Z,101251.75
2023-12-29T09:57:50.579Z,101230.88
2023-12-29T10:02:54.846Z,101226.34
2023-12-29T10:08:04.055Z,101206.91
2023-12-29T10:13:10.171Z,101198.19
2023-12-29T10:18:29.187Z,101202.84
2023-12-29T10:24:06.402Z,101195.94
2023-12-29T10:29:10.363Z,101179.22
2023-12-29T10:34:21.252Z,101179.09
2023-12-29T10:39:30.389Z,101171.63
2023-12-29T10:44:33.705Z,101172.16
2023-12-29T10:49:37.184Z,101150.00
2023-12-29T10:54:40.131Z,101154.06
2023-12-29T10:59:43.776Z,101154.47
2023-12-29T11:04:46.642Z,101135.09
2023-12-29T11:09:50.324Z,101139.00
2023-12-29T11:14:58.120Z,101146.75
2023-12-29T11:20:06.871Z,101132.16
2023-12-29T11:25:11.101Z,101133.09
2023-12-29T11:30:16.797Z,101133.22
2023-12-29T11:36:12.091Z,101126.50
2023-12-29T11:41:35.219Z,101122.22
2023-12-29T11:46:40.587Z,101118.69
2023-12-29T11:51:45.325Z,101129.03
2023-12-29T11:56:49.365Z,101120.84
2023-12-29T12:01:53.539Z,101129.34
2023-12-29T12:06:56.433Z,101129.78
2023-12-29T12:11:59.613Z,101121.38
2023-12-29T12:17:03.104Z,101135.00
2023-12-29T12:22:09.705Z,101125.41
2023-12-29T12:27:13.243Z,101134.63
2023-12-29T12:32:18.062Z,101148.25
2023-12-29T12:37:22.757Z,101138.53
2023-12-29T12:42:26.108Z,101139.81
2023-12-29T12:47:36.361Z,101130.75
2023-12-29T12:52:40.044Z,101132.13
2023-12-29T12:57:43.168Z,101140.06
2023-12-29T13:02:48.032Z,101137.72
2023-12-29T13:07:51.028Z,101130.16
2023-12-29T13:12:55.911Z,101126.78
2023-12-29T13:17:58.962Z,101129.56
2023-12-29T13:23:02.720Z,101127.94
2023-12-29T13:28:07.093Z,101146.00
2023-12-29T13:33:13.783Z,101132.16
2023-12-29T13:38:26.829Z,101124.56
2023-12-29T13:43:33.968Z,101131.00
2023-12-29T13:48:37.276Z,101134.59
2023-12-29T13:53:40.704Z,101126.47
2023-12-29T13:58:43.606Z,101128.75
2023-12-29T14:04:06.306Z,101134.56
2023-12-29T14:09:17.942Z,101139.34
2023-12-29T14:14:28.533Z,101129.72
2023-12-29T14:19:38.297Z,101136.63
2023-12-29T14:24:41.832Z,101132.88
2023-12-29T14:29:45.064Z,101139.63
2023-12-29T14:34:54.561Z,101153.75
2023-12-29T14:39:57.461Z,101156.66
2023-12-29T14:45:00.582Z,101159.06
2023-12-29T14:50:03.863Z,101161.19
2023-12-29T14:55:08.006Z,101168.66
2023-12-29T15:00:12.017Z,101161.09
2023-12-29T15:05:14.973Z,101166.97
2023-12-29T15:10:17.878Z,101154.34
2023-12-29T15:15:22.032Z,101162.22
2023-12-29T15:20:24.826Z,101161.06
2023-12-29T15:25:28.798Z,101149.94
2023-12-29T15:30:31.718Z,101150.09
2023-12-29T15:35:34.765Z,101147.94
2023-12-29T15:40:38.032Z,101154.41
2023-12-29T15:45:42.269Z,101159.31
2023-12-29T15:50:46.493Z,101166.59
2023-12-29T15:55:49.737Z,101171.66
2023-12-29T16:00:52.645Z,101166.88
2023-12-29T16:05:56.697Z,101163.69
2023-12-29T16:10:59.568Z,101159.91
2023-12-29T16:16:05.231Z,101170.16
2023-12-29T16:21:08.230Z,101156.25
2023-12-29T16:26:12.112Z,101159.19
2023-12-29T16:31:15.196Z,101158.91
2023-12-29T16:36:19.380Z,101143.94
2023-12-29T16:41:23.009Z,101150.97
2023-12-29T16:46:26.363Z,101137.28
2023-12-29T16:51:29.409Z,101153.53
2023-12-29T16:56:32.888Z,101152.44
2023-12-29T17:01:35.906Z,101142.06
2023-12-29T17:06:39.661Z,101140.16
2023-12-29T17:11:46.872Z,101137.34
2023-12-29T17:16:58.821Z,101142.91
2023-12-29T17:22:03.065Z,101143.84
2023-12-29T17:27:08.762Z,101146.44
2023-12-29T17:32:11.614Z,101155.28
2023-12-29T17:37:14.636Z,101161.25
2023-12-29T17:42:17.631Z,101154.94
2023-12-29T17:47:22.753Z,101157.03
2023-12-29T17:52:25.825Z,101158.47
2023-12-29T17:57:29.186Z,101154.97
2023-12-29T18:02:33.540Z,101155.09
2023-12-29T18:07:36.742Z,101157.22
2023-12-29T18:12:40.290Z,101161.25
2023-12-29T18:17:43.850Z,101160.00
2023-12-29T18:22:46.965Z,101153.25
2023-12-29T18:27:50.016Z,101143.13
2023-12-29T18:32:53.204Z,101158.72
2023-12-29T18:37:56.050Z,101163.47
2023-12-29T18:43:00.310Z,101149.03
2023-12-29T18:48:03.510Z,101150.69
2023-12-29T18:53:09.199Z,101164.47
2023-12-29T18:58:12.975Z,101158.97
2023-12-29T19:03:17.790Z,101168.84
2023-12-29T19:08:20.526Z,101163.78
2023-12-29T19:13:23.855Z,101153.72
2023-12-29T19:18:26.692Z,101165.34
2023-12-29T19:23:29.942Z,101153.66
2023-12-29T19:28:32.843Z,101158.38
2023-12-29T19:33:36.013Z,101162.53
2023-12-29T19:38:44.013Z,101163.78
2023-12-29T19:43:47.883Z,101166.78
2023-12-29T19:48:51.921Z,101184.88
2023-12-29T19:53:56.769Z,101175.56
2023-12-29T19:58:59.944Z,101165.38
2023-12-29T20:04:04.043Z,101165.66
2023-12-29T20:09:08.744Z,101164.09
2023-12-29T20:14:13.815Z,101182.59
2023-12-29T20:19:17.032Z,101185.78
2023-12-29T20:24:20.554Z,101188.59
2023-12-29T20:29:24.598Z,101200.97
2023-12-29T20:34:27.804Z,101202.25
2023-12-29T20:39:30.775Z,101196.69
2023-12-29T20:44:34.328Z,101194.69
2023-12-29T20:49:37.358Z,101190.41
2023-12-29T20:54:41.051Z,101200.16
2023-12-29T20:59:44.053Z,101191.19
2023-12-29T21:04:47.570Z,101198.00
2023-12-29T21:09:51.130Z,101199.84
2023-12-29T21:14:57.107Z,101197.22
2023-12-29T21:20:00.129Z,101180.41
2023-12-29T21:25:04.797Z,101175.09
2023-12-29T21:30:08.023Z,101169.56
2023-12-29T21:35:12.884Z,101182.28
2023-12-29T21:40:16.021Z,101176.38
2023-12-29T21:45:20.942Z,101171.50
2023-12-29T21:50:25.160Z,101174.59
2023-12-29T21:55:28.647Z,101184.38
2023-12-29T22:00:32.021Z,101179.06
2023-12-29T22:05:35.788Z,101183.09
2023-12-29T22:10:38.877Z,101179.53
2023-12-29T22:15:42.912Z,101167.13
2023-12-29T22:20:45.804Z,101169.19
2023-12-29T22:25:49.252Z,101165.66
2023-12-29T22:30:52.171Z,101157.28
2023-12-29T22:35:55.405Z,101150.81
2023-12-29T22:40:59.128Z,101146.88
2023-12-29T22:46:03.980Z,101130.78
2023-12-29T22:51:08.078Z,101129.81
2023-12-29T22:56:11.200Z,101138.06
2023-12-29T23:01:14.756Z,101130.81
2023-12-29T23:06:18.697Z,101136.75
2023-12-29T23:11:21.558Z,101153.16
2023-12-29T23:16:24.643Z,101162.31
2023-12-29T23:21:27.750Z,101150.72
2023-12-29T23:26:30.897Z,101160.84
2023-12-29T23:31:34.465Z,101163.19
2023-12-29T23:36:38.577Z,101163.75
2023-12-29T23:41:41.781Z,101172.31
2023-12-29T23:46:45.172Z,101171.09
2023-12-29T23:51:49.122Z,101181.44
2023-12-29T23:56:53.392Z,101185.34
